createdAt,value
2022-07-30T00:00:25.373Z,18.10
2022-07-30T00:01:21.249Z,18.17
2022-07-30T00:02:22.398Z,18.05
2022-07-30T00:03:21.259Z,18.02
2022-07-30T00:04:21.243Z,18.01
2022-07-30T00:05:21.268Z,18.02
2022-07-30T00:06:21.300Z,17.95
2022-07-30T00:07:21.327Z,18.06
2022-07-30T00:08:21.358Z,17.99
2022-07-30T00:09:21.385Z,17.99
2022-07-30T00:10:21.415Z,17.95
2022-07-30T00:11:24.652Z,17.96
2022-07-30T00:12:21.474Z,17.92
2022-07-30T00:13:21.501Z,18.01
2022-07-30T00:14:21.733Z,17.87
2022-07-30T00:15:21.560Z,17.90
2022-07-30T00:16:21.709Z,17.84
2022-07-30T00:17:21.614Z,17.86
2022-07-30T00:18:22.445Z,17.83
2022-07-30T00:19:21.672Z,17.76
2022-07-30T00:20:21.705Z,17.77
2022-07-30T00:21:35.500Z,17.80
2022-07-30T00:23:21.791Z,17.80
2022-07-30T00:24:21.820Z,17.79
2022-07-30T00:25:21.850Z,17.79
2022-07-30T00:26:21.874Z,17.73
2022-07-30T00:27:21.905Z,17.73
2022-07-30T00:28:21.944Z,17.80
2022-07-30T00:29:21.962Z,17.80
2022-07-30T00:30:21.993Z,17.77
2022-07-30T00:31:22.021Z,17.80
2022-07-30T00:32:22.047Z,17.68
2022-07-30T00:33:22.076Z,17.66
2022-07-30T00:34:22.103Z,17.62
2022-07-30T00:35:22.135Z,17.65
2022-07-30T00:36:22.166Z,17.63
2022-07-30T00:37:22.192Z,17.65
2022-07-30T00:38:22.219Z,17.63
2022-07-30T00:39:22.250Z,17.68
2022-07-30T00:40:22.277Z,17.65
2022-07-30T00:41:22.307Z,17.55
2022-07-30T00:42:22.538Z,17.58
2022-07-30T00:43:22.364Z,17.54
2022-07-30T00:44:22.391Z,17.50
2022-07-30T00:45:22.421Z,17.46
2022-07-30T00:46:22.448Z,17.45
2022-07-30T00:47:22.479Z,17.52
2022-07-30T00:48:22.507Z,17.46
2022-07-30T00:50:22.569Z,17.42
2022-07-30T00:51:22.595Z,17.38
2022-07-30T00:53:22.651Z,17.35
2022-07-30T00:54:22.678Z,17.28
2022-07-30T00:55:22.720Z,17.28
2022-07-30T00:56:22.734Z,17.20
2022-07-30T00:57:22.765Z,17.07
2022-07-30T00:58:22.792Z,17.10
2022-07-30T00:59:22.822Z,17.09
2022-07-30T01:00:22.869Z,17.09
2022-07-30T01:01:26.162Z,17.06
2022-07-30T01:02:22.939Z,17.02
2022-07-30T01:03:25.555Z,16.92
2022-07-30T01:04:22.964Z,17.05
2022-07-30T01:05:22.990Z,17.06
2022-07-30T01:06:23.021Z,17.07
2022-07-30T01:07:24.009Z,17.05
2022-07-30T01:08:23.089Z,17.09
2022-07-30T01:09:23.106Z,17.06
2022-07-30T01:11:23.165Z,16.94
2022-07-30T01:12:23.191Z,16.97
2022-07-30T01:13:23.374Z,17.00
2022-07-30T01:14:23.248Z,16.95
2022-07-30T01:15:23.290Z,16.88
2022-07-30T01:16:23.349Z,16.95
2022-07-30T01:17:23.338Z,16.84
2022-07-30T01:18:23.360Z,16.80
2022-07-30T01:19:26.216Z,16.82
2022-07-30T01:20:23.428Z,16.82
2022-07-30T01:21:23.446Z,16.81
2022-07-30T01:22:23.472Z,16.85
2022-07-30T01:23:23.501Z,16.70
2022-07-30T01:24:23.532Z,16.80
2022-07-30T01:25:23.559Z,16.74
2022-07-30T01:26:23.598Z,16.70
2022-07-30T01:27:23.616Z,16.73
2022-07-30T01:28:23.643Z,16.74
2022-07-30T01:29:23.672Z,16.69
2022-07-30T01:30:23.700Z,16.74
2022-07-30T01:31:23.788Z,16.70
2022-07-30T01:32:23.757Z,16.65
2022-07-30T01:33:23.790Z,16.66
2022-07-30T01:34:24.015Z,16.66
2022-07-30T01:35:23.843Z,16.59
2022-07-30T01:36:23.868Z,16.57
2022-07-30T01:37:23.896Z,16.62
2022-07-30T01:38:23.923Z,16.51
2022-07-30T01:39:23.952Z,16.65
2022-07-30T01:40:23.981Z,16.59
2022-07-30T01:41:24.009Z,16.52
2022-07-30T01:42:24.035Z,16.51
2022-07-30T01:43:24.067Z,16.52
2022-07-30T01:44:24.236Z,16.52
2022-07-30T01:45:24.145Z,16.49
2022-07-30T01:46:24.203Z,16.44
2022-07-30T01:47:24.183Z,16.44
2022-07-30T01:48:24.204Z,16.45
2022-07-30T01:49:24.310Z,16.42
2022-07-30T01:50:24.261Z,16.44
2022-07-30T01:51:24.292Z,16.33
2022-07-30T01:52:24.329Z,16.40
2022-07-30T01:53:25.358Z,16.40
2022-07-30T01:54:24.384Z,16.42
2022-07-30T01:55:24.606Z,16.37
2022-07-30T01:57:24.460Z,16.40
2022-07-30T01:58:24.487Z,16.39
2022-07-30T01:59:24.517Z,16.30
2022-07-30T02:00:24.544Z,16.29
2022-07-30T02:01:24.623Z,16.36
2022-07-30T02:02:24.598Z,16.33
2022-07-30T02:03:24.656Z,16.32
2022-07-30T02:04:24.858Z,16.26
2022-07-30T02:05:24.684Z,16.27
2022-07-30T02:06:24.710Z,16.25
2022-07-30T02:07:24.943Z,16.21
2022-07-30T02:08:24.771Z,16.22
2022-07-30T02:09:24.797Z,16.16
2022-07-30T02:10:24.825Z,16.17
2022-07-30T02:11:24.868Z,16.10
2022-07-30T02:12:24.880Z,16.16
2022-07-30T02:13:24.910Z,16.17
2022-07-30T02:14:24.937Z,16.18
2022-07-30T02:15:24.967Z,16.16
2022-07-30T02:16:25.025Z,16.04
2022-07-30T02:17:30.222Z,15.99
2022-07-30T02:18:25.049Z,16.16
2022-07-30T02:19:25.078Z,16.08
2022-07-30T02:20:26.459Z,16.14
2022-07-30T02:21:25.133Z,16.13
2022-07-30T02:22:25.160Z,16.08
2022-07-30T02:23:25.189Z,16.10
2022-07-30T02:24:25.217Z,16.14
2022-07-30T02:25:25.247Z,16.07
2022-07-30T02:26:25.282Z,16.07
2022-07-30T02:27:25.302Z,16.10
2022-07-30T02:28:25.331Z,16.04
2022-07-30T02:29:25.359Z,16.04
2022-07-30T02:30:25.385Z,16.10
2022-07-30T02:31:25.451Z,16.04
2022-07-30T02:32:26.899Z,15.96
2022-07-30T02:33:25.471Z,15.96
2022-07-30T02:34:25.496Z,15.96
2022-07-30T02:35:25.527Z,15.98
2022-07-30T02:36:25.567Z,16.00
2022-07-30T02:37:43.023Z,15.99
2022-07-30T02:38:25.608Z,15.95
2022-07-30T02:39:25.637Z,15.96
2022-07-30T02:40:25.663Z,15.98
2022-07-30T02:41:25.708Z,15.93
2022-07-30T02:42:25.720Z,15.98
2022-07-30T02:43:25.761Z,15.96
2022-07-30T02:44:25.777Z,16.04
2022-07-30T02:45:25.805Z,15.99
2022-07-30T02:46:25.889Z,15.91
2022-07-30T02:47:25.861Z,15.89
2022-07-30T02:48:34.726Z,15.86
2022-07-30T02:49:25.917Z,15.83
2022-07-30T02:50:25.945Z,15.88
2022-07-30T02:51:25.972Z,15.81
2022-07-30T02:52:26.000Z,15.84
2022-07-30T02:53:26.029Z,15.93
2022-07-30T02:54:26.056Z,15.83
2022-07-30T02:55:26.086Z,15.89
2022-07-30T02:56:26.112Z,15.91
2022-07-30T02:57:26.140Z,15.93
2022-07-30T02:58:26.167Z,15.86
2022-07-30T02:59:26.197Z,15.91
2022-07-30T03:00:26.260Z,15.91
2022-07-30T03:01:26.253Z,15.86
2022-07-30T03:02:29.289Z,15.89
2022-07-30T03:03:26.312Z,15.86
2022-07-30T03:04:26.339Z,15.91
2022-07-30T03:05:26.365Z,15.96
2022-07-30T03:06:26.392Z,15.86
2022-07-30T03:07:26.421Z,15.81
2022-07-30T03:08:26.449Z,15.89
2022-07-30T03:09:26.476Z,15.89
2022-07-30T03:10:26.502Z,15.98
2022-07-30T03:11:26.534Z,15.96
2022-07-30T03:12:26.559Z,16.13
2022-07-30T03:13:26.588Z,16.08
2022-07-30T03:14:26.614Z,16.11
2022-07-30T03:15:26.644Z,16.16
2022-07-30T03:16:26.720Z,16.16
2022-07-30T03:17:26.700Z,16.17
2022-07-30T03:18:26.726Z,16.14
2022-07-30T03:19:26.756Z,16.14
2022-07-30T03:20:26.782Z,16.17
2022-07-30T03:21:26.814Z,16.02
2022-07-30T03:22:31.222Z,16.08
2022-07-30T03:23:26.868Z,16.04
2022-07-30T03:24:26.898Z,16.08
2022-07-30T03:25:26.923Z,16.04
2022-07-30T03:26:26.950Z,16.02
2022-07-30T03:27:26.979Z,15.98
2022-07-30T03:28:27.008Z,15.99
2022-07-30T03:29:27.049Z,15.98
2022-07-30T03:30:27.077Z,15.95
2022-07-30T03:31:28.355Z,15.86
2022-07-30T03:32:27.119Z,15.96
2022-07-30T03:33:38.827Z,15.93
2022-07-30T03:34:27.181Z,15.98
2022-07-30T03:35:27.197Z,15.98
2022-07-30T03:36:27.222Z,15.99
2022-07-30T03:37:27.251Z,15.99
2022-07-30T03:38:27.292Z,16.04
2022-07-30T03:39:27.306Z,15.99
2022-07-30T03:40:27.331Z,15.98
2022-07-30T03:41:27.361Z,15.96
2022-07-30T03:42:27.386Z,16.00
2022-07-30T03:43:33.264Z,16.11
2022-07-30T03:44:27.762Z,16.13
2022-07-30T03:45:27.473Z,16.21
2022-07-30T03:46:27.569Z,16.11
2022-07-30T03:47:27.526Z,16.10
2022-07-30T03:48:27.552Z,16.14
2022-07-30T03:49:27.636Z,16.18
2022-07-30T03:50:27.606Z,16.16
2022-07-30T03:51:27.636Z,16.17
2022-07-30T03:52:27.661Z,16.18
2022-07-30T03:53:27.693Z,16.26
2022-07-30T03:54:27.722Z,16.26
2022-07-30T03:55:27.747Z,16.17
2022-07-30T03:56:27.777Z,16.22
2022-07-30T03:57:27.804Z,16.18
2022-07-30T03:58:27.829Z,16.26
2022-07-30T03:59:27.860Z,16.16
2022-07-30T04:00:27.890Z,16.16
2022-07-30T04:01:27.961Z,16.14
2022-07-30T04:02:27.942Z,16.13
2022-07-30T04:03:28.050Z,16.17
2022-07-30T04:04:28.043Z,16.10
2022-07-30T04:05:28.027Z,16.06
2022-07-30T04:06:28.054Z,16.06
2022-07-30T04:07:28.082Z,16.04
2022-07-30T04:08:28.112Z,15.96
2022-07-30T04:09:28.142Z,15.96
2022-07-30T04:10:28.166Z,16.04
2022-07-30T04:11:41.460Z,16.04
2022-07-30T04:12:28.222Z,16.14
2022-07-30T04:13:28.251Z,16.10
2022-07-30T04:14:28.280Z,16.14
2022-07-30T04:16:35.572Z,16.08
2022-07-30T04:16:41.345Z,15.99
2022-07-30T04:17:28.409Z,15.95
2022-07-30T04:18:28.390Z,15.89
2022-07-30T04:19:28.422Z,16.04
2022-07-30T04:20:28.449Z,15.99
2022-07-30T04:21:28.476Z,16.02
2022-07-30T04:22:28.501Z,16.06
2022-07-30T04:23:28.532Z,15.99
2022-07-30T04:24:28.558Z,15.95
2022-07-30T04:25:28.591Z,15.98
2022-07-30T04:26:28.614Z,15.96
2022-07-30T04:27:28.645Z,15.99
2022-07-30T04:28:28.670Z,16.08
2022-07-30T04:29:28.699Z,16.04
2022-07-30T04:30:28.727Z,16.07
2022-07-30T04:31:28.814Z,16.06
2022-07-30T04:32:28.782Z,16.08
2022-07-30T04:33:28.810Z,16.07
2022-07-30T04:34:28.838Z,16.10
2022-07-30T04:35:51.456Z,16.11
2022-07-30T04:36:28.895Z,16.17
2022-07-30T04:37:28.926Z,16.21
2022-07-30T04:38:28.949Z,16.30
2022-07-30T04:39:28.980Z,16.33
2022-07-30T04:40:29.009Z,16.29
2022-07-30T04:41:29.035Z,16.40
2022-07-30T04:42:29.061Z,16.57
2022-07-30T04:43:29.092Z,16.48
2022-07-30T04:44:29.121Z,16.52
2022-07-30T04:45:29.152Z,16.57
2022-07-30T04:46:29.222Z,16.72
2022-07-30T04:47:29.201Z,16.70
2022-07-30T04:48:31.851Z,16.72
2022-07-30T04:49:29.285Z,16.87
2022-07-30T04:50:29.283Z,16.81
2022-07-30T04:51:29.313Z,16.88
2022-07-30T04:52:29.340Z,16.94
2022-07-30T04:53:29.367Z,17.03
2022-07-30T04:54:29.396Z,17.15
2022-07-30T04:55:29.425Z,17.09
2022-07-30T04:56:29.452Z,17.22
2022-07-30T04:57:29.482Z,17.18
2022-07-30T04:58:29.508Z,17.38
2022-07-30T04:59:29.542Z,17.32
2022-07-30T05:00:32.425Z,17.42
2022-07-30T05:01:37.591Z,17.47
2022-07-30T05:02:29.621Z,17.60
2022-07-30T05:03:29.652Z,17.77
2022-07-30T05:04:29.679Z,17.81
2022-07-30T05:05:29.771Z,17.77
2022-07-30T05:06:29.736Z,17.87
2022-07-30T05:07:29.767Z,17.90
2022-07-30T05:08:29.882Z,17.98
2022-07-30T05:09:29.826Z,17.95
2022-07-30T05:10:29.853Z,18.03
2022-07-30T05:11:29.884Z,18.01
2022-07-30T05:12:29.908Z,18.08
2022-07-30T05:13:34.581Z,18.13
2022-07-30T05:14:29.963Z,18.11
2022-07-30T05:15:36.910Z,18.10
2022-07-30T05:16:30.082Z,18.20
2022-07-30T05:17:30.052Z,18.27
2022-07-30T05:18:30.079Z,18.27
2022-07-30T05:19:30.113Z,18.35
2022-07-30T05:20:30.138Z,18.31
2022-07-30T05:21:30.164Z,18.26
2022-07-30T05:22:30.195Z,18.38
2022-07-30T05:23:30.222Z,18.31
2022-07-30T05:24:30.254Z,18.39
2022-07-30T05:25:30.280Z,18.44
2022-07-30T05:26:30.314Z,18.39
2022-07-30T05:27:30.338Z,18.35
2022-07-30T05:28:30.369Z,18.38
2022-07-30T05:29:30.397Z,18.42
2022-07-30T05:30:30.429Z,18.42
2022-07-30T05:31:31.220Z,18.50
2022-07-30T05:32:30.486Z,18.42
2022-07-30T05:33:40.803Z,18.53
2022-07-30T05:34:30.543Z,18.54
2022-07-30T05:35:30.571Z,18.51
2022-07-30T05:36:30.602Z,18.56
2022-07-30T05:37:30.628Z,18.53
2022-07-30T05:38:30.665Z,18.57
2022-07-30T05:39:30.685Z,18.51
2022-07-30T05:40:30.716Z,18.60
2022-07-30T05:41:32.774Z,18.74
2022-07-30T05:42:30.774Z,18.68
2022-07-30T05:43:30.802Z,18.74
2022-07-30T05:44:30.835Z,18.76
2022-07-30T05:45:30.860Z,18.81
2022-07-30T05:46:30.992Z,18.90
2022-07-30T05:47:30.918Z,18.87
2022-07-30T05:48:30.950Z,18.93
2022-07-30T05:49:30.976Z,18.99
2022-07-30T05:50:31.007Z,18.96
2022-07-30T05:56:25.344Z,19.28
2022-07-30T05:57:25.373Z,19.43
2022-07-30T05:58:25.402Z,19.68
2022-07-30T05:59:25.434Z,20.00
2022-07-30T06:00:25.463Z,20.27
2022-07-30T06:01:25.555Z,20.44
2022-07-30T06:02:25.520Z,20.71
2022-07-30T06:03:25.552Z,21.30
2022-07-30T06:04:25.650Z,21.68
2022-07-30T06:05:25.611Z,21.85
2022-07-30T06:06:25.641Z,22.15
2022-07-30T06:07:25.673Z,22.16
2022-07-30T06:08:25.701Z,22.42
2022-07-30T06:09:37.034Z,22.66
2022-07-30T06:10:25.762Z,23.01
2022-07-30T06:11:25.795Z,23.44
2022-07-30T06:12:25.826Z,23.45
2022-07-30T06:13:25.859Z,23.71
2022-07-30T06:14:26.693Z,23.67
2022-07-30T06:15:28.539Z,23.57
2022-07-30T06:16:26.784Z,23.72
2022-07-30T06:17:25.976Z,23.85
2022-07-30T06:18:26.002Z,23.99
2022-07-30T06:19:26.037Z,23.75
2022-07-30T06:20:26.071Z,23.79
2022-07-30T06:21:26.114Z,24.15
2022-07-30T06:22:26.343Z,24.18
2022-07-30T06:23:26.168Z,24.34
2022-07-30T06:24:26.200Z,24.24
2022-07-30T06:25:26.444Z,24.42
2022-07-30T06:26:26.266Z,24.39
2022-07-30T06:27:28.911Z,24.34
2022-07-30T06:28:40.248Z,24.21
2022-07-30T06:29:26.366Z,24.24
2022-07-30T06:30:31.237Z,24.33
2022-07-30T06:31:26.473Z,24.75
2022-07-30T06:32:26.465Z,24.54
2022-07-30T06:33:26.517Z,24.49
2022-07-30T06:35:26.567Z,24.92
2022-07-30T06:36:26.601Z,25.22
2022-07-30T06:37:58.822Z,25.34
2022-07-30T06:38:27.073Z,25.64
2022-07-30T06:39:56.367Z,25.86
2022-07-30T06:40:26.790Z,26.11
2022-07-30T06:41:26.770Z,26.30
2022-07-30T06:42:26.807Z,26.11
2022-07-30T06:43:26.840Z,26.50
2022-07-30T06:44:26.879Z,26.49
2022-07-30T06:45:26.910Z,26.45
2022-07-30T06:47:09.778Z,26.41
2022-07-30T06:48:09.542Z,25.42
2022-07-30T06:49:09.666Z,25.14
2022-07-30T06:50:09.612Z,25.12
2022-07-30T06:51:09.645Z,25.59
2022-07-30T06:52:09.683Z,25.78
2022-07-30T06:53:09.716Z,25.89
2022-07-30T06:54:09.753Z,26.03
2022-07-30T06:55:09.788Z,26.06
2022-07-30T06:56:09.826Z,26.49
2022-07-30T06:58:09.897Z,25.60
2022-07-30T06:59:09.935Z,24.96
2022-07-30T07:00:09.969Z,24.56
2022-07-30T07:01:11.586Z,24.27
2022-07-30T07:02:10.041Z,24.03
2022-07-30T07:03:11.910Z,23.99
2022-07-30T07:04:10.161Z,24.09
2022-07-30T07:05:10.149Z,24.56
2022-07-30T07:08:10.255Z,23.55
2022-07-30T07:09:10.291Z,23.34
2022-07-30T07:10:10.756Z,23.12
2022-07-30T07:11:10.375Z,23.48
2022-07-30T07:13:10.641Z,24.70
2022-07-30T07:14:10.464Z,25.34
2022-07-30T07:15:10.516Z,25.75
2022-07-30T07:17:10.669Z,25.00
2022-07-30T07:18:10.603Z,24.87
2022-07-30T07:19:10.639Z,24.19
2022-07-30T07:20:10.675Z,23.87
2022-07-30T07:21:10.713Z,23.53
2022-07-30T07:22:10.746Z,23.41
2022-07-30T07:23:12.393Z,23.28
2022-07-30T07:25:03.394Z,22.82
2022-07-30T07:26:03.430Z,23.40
2022-07-30T07:27:03.663Z,23.56
2022-07-30T07:28:12.370Z,23.72
2022-07-30T07:29:05.369Z,23.53
2022-07-30T07:30:05.593Z,23.74
2022-07-30T07:32:07.350Z,23.75
2022-07-30T07:32:51.207Z,23.79
2022-07-30T07:33:51.242Z,23.97
2022-07-30T07:34:51.278Z,23.55
2022-07-30T07:35:51.312Z,23.84
2022-07-30T07:36:51.348Z,23.57
2022-07-30T07:37:51.382Z,23.82
2022-07-30T07:38:51.419Z,23.93
2022-07-30T07:39:51.454Z,24.51
2022-07-30T07:40:51.490Z,24.69
2022-07-30T07:41:51.523Z,24.85
2022-07-30T07:42:51.560Z,25.30
2022-07-30T07:43:51.593Z,24.64
2022-07-30T07:44:51.630Z,24.40
2022-07-30T07:45:51.757Z,24.02
2022-07-30T07:46:51.926Z,24.04
2022-07-30T07:47:53.264Z,24.12
2022-07-30T07:48:51.858Z,23.97
2022-07-30T07:49:51.807Z,24.52
2022-07-30T07:50:51.843Z,25.30
2022-07-30T07:51:51.875Z,25.42
2022-07-30T07:52:51.914Z,25.70
2022-07-30T07:54:18.566Z,26.34
2022-07-30T07:54:51.986Z,26.72
2022-07-30T07:55:52.029Z,26.91
2022-07-30T07:56:57.376Z,27.09
2022-07-30T07:57:55.924Z,27.24
2022-07-30T07:58:56.503Z,27.69
2022-07-30T07:59:52.162Z,27.79
2022-07-30T08:00:52.255Z,27.87
2022-07-30T08:01:52.231Z,27.41
2022-07-30T08:02:52.860Z,27.24
2022-07-30T08:03:52.306Z,26.94
2022-07-30T08:04:52.546Z,26.99
2022-07-30T08:05:58.205Z,27.18
2022-07-30T08:07:34.990Z,27.28
2022-07-30T08:11:35.124Z,27.91
2022-07-30T08:12:35.164Z,28.09
2022-07-30T08:13:49.335Z,28.06
2022-07-30T08:14:35.239Z,28.30
2022-07-30T08:15:35.275Z,28.51
2022-07-30T08:16:35.395Z,28.90
2022-07-30T08:18:35.796Z,27.93
2022-07-30T08:19:35.434Z,27.51
2022-07-30T08:20:35.466Z,27.36
2022-07-30T08:21:35.509Z,26.96
2022-07-30T08:22:35.542Z,27.15
2022-07-30T08:23:38.693Z,27.45
2022-07-30T08:24:35.619Z,27.33
2022-07-30T08:25:35.659Z,27.83
2022-07-30T08:26:35.698Z,28.28
2022-07-30T08:27:35.738Z,28.70
2022-07-30T08:29:28.356Z,29.06
2022-07-30T08:32:28.691Z,25.91
2022-07-30T08:33:28.725Z,26.45
2022-07-30T08:34:28.546Z,26.79
2022-07-30T08:35:28.583Z,27.55
2022-07-30T08:43:28.896Z,29.47
2022-07-30T08:44:28.932Z,29.72
2022-07-30T08:45:34.949Z,30.28
2022-07-30T08:47:29.048Z,29.42
2022-07-30T08:48:29.090Z,29.55
2022-07-30T08:49:29.125Z,28.20
2022-07-30T08:50:30.179Z,28.23
2022-07-30T08:51:29.206Z,28.43
2022-07-30T08:52:29.246Z,28.80
2022-07-30T08:53:29.283Z,28.85
2022-07-30T08:54:29.322Z,29.32
2022-07-30T08:55:29.362Z,29.60
2022-07-30T08:56:29.403Z,29.38
2022-07-30T08:57:29.440Z,29.13
2022-07-30T08:58:29.484Z,29.36
2022-07-30T08:59:59.628Z,29.52
2022-07-30T09:00:29.560Z,29.36
2022-07-30T09:01:29.598Z,29.32
2022-07-30T09:02:29.792Z,29.50
2022-07-30T09:03:29.679Z,28.36
2022-07-30T09:04:29.719Z,28.85
2022-07-30T09:05:29.755Z,28.91
2022-07-30T09:06:29.797Z,29.24
2022-07-30T09:07:29.836Z,29.32
2022-07-30T09:08:29.877Z,29.48
2022-07-30T09:09:29.914Z,30.00
2022-07-30T09:10:29.953Z,29.81
2022-07-30T09:11:29.992Z,29.45
2022-07-30T09:12:30.032Z,28.67
2022-07-30T09:13:30.070Z,28.53
2022-07-30T09:14:30.905Z,28.08
2022-07-30T09:15:30.149Z,27.12
2022-07-30T09:16:30.189Z,26.26
2022-07-30T09:17:32.748Z,26.39
2022-07-30T09:18:30.267Z,27.00
2022-07-30T09:19:30.303Z,27.01
2022-07-30T09:20:30.343Z,27.59
2022-07-30T09:21:30.380Z,28.20
2022-07-30T09:22:30.420Z,28.31
2022-07-30T09:23:30.456Z,28.76
2022-07-30T09:24:30.496Z,28.88
2022-07-30T09:25:30.937Z,29.57
2022-07-30T09:26:30.572Z,29.82
2022-07-30T09:27:30.610Z,29.70
2022-07-30T09:28:30.650Z,28.79
2022-07-30T09:29:30.686Z,28.75
2022-07-30T09:30:32.481Z,28.76
2022-07-30T09:31:30.816Z,29.08
2022-07-30T09:32:30.803Z,29.35
2022-07-30T09:33:30.839Z,29.21
2022-07-30T09:34:30.879Z,28.92
2022-07-30T09:35:30.918Z,29.48
2022-07-30T09:36:30.956Z,29.88
2022-07-30T09:37:30.992Z,30.16
2022-07-30T09:38:31.034Z,30.29
2022-07-30T09:39:31.070Z,30.71
2022-07-30T09:40:32.220Z,30.24
2022-07-30T09:41:38.908Z,28.97
2022-07-30T09:42:31.188Z,28.48
2022-07-30T09:43:31.223Z,27.65
2022-07-30T09:44:31.268Z,27.04
2022-07-30T09:45:34.762Z,27.11
2022-07-30T09:46:31.339Z,27.69
2022-07-30T09:49:29.453Z,28.57
2022-07-30T09:50:30.812Z,28.88
2022-07-30T09:51:54.632Z,29.08
2022-07-30T09:52:29.609Z,29.29
2022-07-30T09:53:29.338Z,29.06
2022-07-30T09:54:29.379Z,28.54
2022-07-30T09:55:29.414Z,28.08
2022-07-30T09:57:50.290Z,27.15
2022-07-30T09:58:47.135Z,27.12
2022-07-30T09:59:47.181Z,27.49
2022-07-30T10:00:47.301Z,27.90
2022-07-30T10:01:50.966Z,28.35
2022-07-30T10:02:47.279Z,29.10
2022-07-30T10:03:47.806Z,29.52
2022-07-30T10:04:47.553Z,30.04
2022-07-30T10:05:47.386Z,30.22
2022-07-30T10:06:47.425Z,30.39
2022-07-30T10:07:47.470Z,30.07
2022-07-30T10:08:48.152Z,30.37
2022-07-30T10:09:47.531Z,30.31
2022-07-30T10:10:50.742Z,28.86
2022-07-30T10:11:47.605Z,29.08
2022-07-30T10:12:47.644Z,28.82
2022-07-30T10:13:47.678Z,29.24
2022-07-30T10:14:47.718Z,28.98
2022-07-30T10:15:47.787Z,28.60
2022-07-30T10:17:47.852Z,27.41
2022-07-30T10:18:47.859Z,27.69
2022-07-30T10:19:47.898Z,28.30
2022-07-30T10:20:47.936Z,28.42
2022-07-30T10:21:47.970Z,29.08
2022-07-30T10:23:50.527Z,29.87
2022-07-30T10:24:46.526Z,29.36
2022-07-30T10:24:48.079Z,30.11
2022-07-30T10:25:49.675Z,30.63
2022-07-30T10:26:48.177Z,30.94
2022-07-30T10:27:48.186Z,31.36
2022-07-30T10:28:49.028Z,30.97
2022-07-30T10:29:48.258Z,31.15
2022-07-30T10:30:48.293Z,30.52
2022-07-30T10:31:54.435Z,29.98
2022-07-30T10:32:48.365Z,29.05
2022-07-30T10:33:48.403Z,28.53
2022-07-30T10:34:48.440Z,27.98
2022-07-30T10:35:49.533Z,28.16
2022-07-30T10:37:31.067Z,28.85
2022-07-30T10:38:31.103Z,29.18
2022-07-30T10:39:34.521Z,29.36
2022-07-30T10:40:31.182Z,29.38
2022-07-30T10:41:42.791Z,29.55
2022-07-30T10:42:31.249Z,29.51
2022-07-30T10:43:31.492Z,29.76
2022-07-30T10:44:31.362Z,30.03
2022-07-30T10:45:31.354Z,30.14
2022-07-30T10:46:31.393Z,30.11
2022-07-30T10:47:33.397Z,30.29
2022-07-30T10:48:31.464Z,30.31
2022-07-30T10:49:34.640Z,30.64
2022-07-30T10:50:31.538Z,30.66
2022-07-30T10:51:34.765Z,29.77
2022-07-30T10:52:31.607Z,28.91
2022-07-30T10:53:31.641Z,28.92
2022-07-30T10:55:32.865Z,28.41
2022-07-30T10:56:19.281Z,28.05
2022-07-30T10:57:32.367Z,28.17
2022-07-30T10:58:23.055Z,28.60
2022-07-30T10:59:19.386Z,29.02
2022-07-30T11:00:19.429Z,29.15
2022-07-30T11:03:14.941Z,30.07
2022-07-30T11:04:09.848Z,30.10
2022-07-30T11:05:09.883Z,30.18
2022-07-30T11:06:09.922Z,30.47
2022-07-30T11:07:12.542Z,30.48
2022-07-30T11:08:09.988Z,30.48
2022-07-30T11:09:10.023Z,30.81
2022-07-30T11:10:10.061Z,30.60
2022-07-30T11:11:19.878Z,30.44
2022-07-30T11:12:16.370Z,30.28
2022-07-30T11:13:10.187Z,30.56
2022-07-30T11:14:10.202Z,30.59
2022-07-30T11:15:18.459Z,29.95
2022-07-30T11:16:10.273Z,29.82
2022-07-30T11:17:10.307Z,29.82
2022-07-30T11:18:13.076Z,29.85
2022-07-30T11:19:53.322Z,30.04
2022-07-30T11:20:11.729Z,30.07
2022-07-30T11:21:10.452Z,29.50
2022-07-30T11:22:11.147Z,29.48
2022-07-30T11:23:10.730Z,29.76
2022-07-30T11:24:10.769Z,29.63
2022-07-30T11:25:13.160Z,29.38
2022-07-30T11:26:14.414Z,29.32
2022-07-30T11:28:10.693Z,29.28
2022-07-30T11:29:10.729Z,29.35
2022-07-30T11:30:10.760Z,29.29
2022-07-30T11:31:10.798Z,29.26
2022-07-30T11:32:11.069Z,29.23
2022-07-30T11:33:10.866Z,29.02
2022-07-30T11:34:10.900Z,28.92
2022-07-30T11:35:10.937Z,28.83
2022-07-30T11:36:12.033Z,28.39
2022-07-30T11:37:18.133Z,28.12
2022-07-30T11:38:11.037Z,27.84
2022-07-30T11:39:11.073Z,27.49
2022-07-30T11:40:11.261Z,27.42
2022-07-30T11:41:11.142Z,27.49
2022-07-30T11:42:11.174Z,27.59
2022-07-30T11:43:11.211Z,27.66
2022-07-30T11:44:11.242Z,27.81
2022-07-30T11:45:11.278Z,27.80
2022-07-30T11:48:08.947Z,27.80
2022-07-30T11:49:09.133Z,27.76
2022-07-30T11:50:09.006Z,27.64
2022-07-30T11:51:09.042Z,27.41
2022-07-30T11:52:09.680Z,26.97
2022-07-30T11:53:09.123Z,26.93
2022-07-30T11:54:12.370Z,27.01
2022-07-30T11:55:09.176Z,27.16
2022-07-30T11:56:09.208Z,27.36
2022-07-30T11:57:09.242Z,27.36
2022-07-30T11:58:09.799Z,27.37
2022-07-30T12:00:09.374Z,27.43
2022-07-30T12:01:09.687Z,27.43
2022-07-30T12:02:09.409Z,27.42
2022-07-30T12:03:09.443Z,27.45
2022-07-30T12:04:09.489Z,27.57
2022-07-30T12:05:09.827Z,27.66
2022-07-30T12:07:09.902Z,27.87
2022-07-30T12:08:10.374Z,27.91
2022-07-30T12:09:10.432Z,27.68
2022-07-30T12:10:09.727Z,27.55
2022-07-30T12:11:09.912Z,27.26
2022-07-30T12:22:34.046Z,27.43
2022-07-30T12:23:34.078Z,27.48
2022-07-30T12:24:34.109Z,27.34
2022-07-30T12:25:34.144Z,27.31
2022-07-30T12:26:34.400Z,27.27
2022-07-30T12:27:34.210Z,27.38
2022-07-30T12:28:34.240Z,27.57
2022-07-30T12:29:34.289Z,27.69
2022-07-30T12:30:34.307Z,27.87
2022-07-30T12:32:16.907Z,28.03
2022-07-30T12:33:16.939Z,28.06
2022-07-30T12:34:16.959Z,27.90
2022-07-30T12:35:16.993Z,27.75
2022-07-30T12:36:17.036Z,27.53
2022-07-30T12:37:17.277Z,27.52
2022-07-30T12:38:17.102Z,27.26
2022-07-30T12:39:17.336Z,27.12
2022-07-30T12:40:17.164Z,27.16
2022-07-30T12:41:17.610Z,27.26
2022-07-30T12:42:17.233Z,27.34
2022-07-30T12:44:17.300Z,27.57
2022-07-30T12:45:17.333Z,27.66
2022-07-30T12:46:17.567Z,27.65
2022-07-30T12:47:17.383Z,27.64
2022-07-30T12:48:17.631Z,27.61
2022-07-30T12:49:21.412Z,27.49
2022-07-30T12:51:18.037Z,27.15
2022-07-30T12:53:18.000Z,27.38
2022-07-30T12:55:17.666Z,27.48
2022-07-30T12:56:17.689Z,27.45
2022-07-30T12:57:18.017Z,27.57
2022-07-30T12:58:18.148Z,27.57
2022-07-30T12:59:17.792Z,27.42
2022-07-30T13:02:17.890Z,27.26
2022-07-30T13:03:17.919Z,27.28
2022-07-30T13:04:17.958Z,27.43
2022-07-30T13:05:17.983Z,27.59
2022-07-30T13:06:18.329Z,27.72
2022-07-30T13:07:18.052Z,27.84
2022-07-30T13:10:18.152Z,27.93
2022-07-30T13:11:18.180Z,27.74
2022-07-30T13:12:18.526Z,27.79
2022-07-30T13:13:18.248Z,27.68
2022-07-30T13:14:18.996Z,27.52
2022-07-30T13:18:18.414Z,27.36
2022-07-30T13:19:18.449Z,27.37
2022-07-30T13:20:18.480Z,27.24
2022-07-30T13:21:18.522Z,27.30
2022-07-30T13:23:19.287Z,27.31
2022-07-30T13:25:18.659Z,27.48
2022-07-30T13:27:18.908Z,27.79
2022-07-30T13:30:19.012Z,27.99
2022-07-30T13:31:19.045Z,28.01
2022-07-30T13:32:19.588Z,28.01
2022-07-30T13:34:18.937Z,27.87
2022-07-30T13:35:18.975Z,28.01
2022-07-30T13:36:19.003Z,27.93
2022-07-30T13:37:19.332Z,27.98
2022-07-30T13:38:19.070Z,27.94
2022-07-30T13:39:19.106Z,27.61
2022-07-30T13:40:19.124Z,27.37
2022-07-30T13:42:19.205Z,27.23
2022-07-30T13:43:19.236Z,27.23
2022-07-30T13:46:19.336Z,27.53
2022-07-30T13:47:19.367Z,27.72
2022-07-30T13:48:19.405Z,27.79
2022-07-30T13:50:19.462Z,28.02
2022-07-30T13:51:19.499Z,27.99
2022-07-30T13:52:19.527Z,27.96
2022-07-30T13:53:19.550Z,27.96
2022-07-30T13:54:19.581Z,27.96
2022-07-30T13:55:19.614Z,27.91
2022-07-30T13:56:20.049Z,27.81
2022-07-30T13:58:19.714Z,27.59
2022-07-30T13:59:19.744Z,27.41
2022-07-30T14:00:19.815Z,27.42
2022-07-30T14:01:19.838Z,27.28
2022-07-30T14:02:19.844Z,27.45
2022-07-30T14:03:19.874Z,27.57
2022-07-30T14:04:19.921Z,27.69
2022-07-30T14:05:19.952Z,27.68
2022-07-30T14:06:20.909Z,27.57
2022-07-30T14:08:20.253Z,27.79
2022-07-30T14:09:20.085Z,27.91
2022-07-30T14:10:20.382Z,27.99
2022-07-30T14:11:20.153Z,28.11
2022-07-30T14:13:21.418Z,28.20
2022-07-30T14:14:20.253Z,27.98